sensor_id;sensor_type;location;lat;lon;timestamp;pressure;altitude;pressure_sealevel;temperature;humidity
11936;BME280;6027;48.576;9.180;2023-07-20T00:00:45;96796.38;;;19.64;63.61
11936;BME280;6027;48.576;9.180;2023-07-20T00:03:12;96793.19;;;19.67;61.92
11936;BME280;6027;48.576;9.180;2023-07-20T00:05:47;96801.13;;;19.74;62.32
11936;BME280;6027;48.576;9.180;2023-07-20T00:08:13;96790.28;;;19.69;61.86
11936;BME280;6027;48.576;9.180;2023-07-20T00:10:40;96793.44;;;19.66;61.96
11936;BME280;6027;48.576;9.180;2023-07-20T00:13:05;96796.47;;;19.70;61.04
11936;BME280;6027;48.576;9.180;2023-07-20T00:15:31;96795.00;;;19.62;61.27
11936;BME280;6027;48.576;9.180;2023-07-20T00:17:56;96797.75;;;19.67;61.12
11936;BME280;6027;48.576;9.180;2023-07-20T00:20:23;96790.69;;;19.61;61.51
11936;BME280;6027;48.576;9.180;2023-07-20T00:22:49;96795.81;;;19.62;61.42
11936;BME280;6027;48.576;9.180;2023-07-20T00:25:17;96786.28;;;19.55;62.17
11936;BME280;6027;48.576;9.180;2023-07-20T00:27:43;96790.59;;;19.56;62.98
11936;BME280;6027;48.576;9.180;2023-07-20T00:30:09;96789.06;;;19.48;63.42
11936;BME280;6027;48.576;9.180;2023-07-20T00:32:35;96783.81;;;19.53;63.15
11936;BME280;6027;48.576;9.180;2023-07-20T00:35:00;96778.69;;;19.52;63.90
11936;BME280;6027;48.576;9.180;2023-07-20T00:37:26;96782.53;;;19.56;64.66
11936;BME280;6027;48.576;9.180;2023-07-20T00:39:52;96780.66;;;19.56;64.63
11936;BME280;6027;48.576;9.180;2023-07-20T00:42:18;96781.25;;;19.47;65.46
11936;BME280;6027;48.576;9.180;2023-07-20T00:44:44;96774.75;;;19.43;65.38
11936;BME280;6027;48.576;9.180;2023-07-20T00:47:10;96775.59;;;19.31;65.22
11936;BME280;6027;48.576;9.180;2023-07-20T00:49:35;96777.81;;;19.35;65.67
11936;BME280;6027;48.576;9.180;2023-07-20T00:52:03;96783.94;;;19.18;66.28
11936;BME280;6027;48.576;9.180;2023-07-20T00:54:30;96780.09;;;19.14;66.40
11936;BME280;6027;48.576;9.180;2023-07-20T00:56:56;96784.78;;;19.07;65.31
11936;BME280;6027;48.576;9.180;2023-07-20T00:59:23;96782.53;;;19.16;65.46
11936;BME280;6027;48.576;9.180;2023-07-20T01:01:48;96781.97;;;19.14;65.19
11936;BME280;6027;48.576;9.180;2023-07-20T01:04:14;96784.53;;;19.09;65.68
11936;BME280;6027;48.576;9.180;2023-07-20T01:06:55;96777.78;;;19.06;65.71
11936;BME280;6027;48.576;9.180;2023-07-20T01:09:32;96776.31;;;18.98;66.46
11936;BME280;6027;48.576;9.180;2023-07-20T01:12:13;96782.72;;;18.86;66.88
11936;BME280;6027;48.576;9.180;2023-07-20T01:14:44;96785.22;;;18.76;67.02
11936;BME280;6027;48.576;9.180;2023-07-20T01:17:10;96775.28;;;18.76;67.31
11936;BME280;6027;48.576;9.180;2023-07-20T01:19:35;96781.72;;;18.75;67.71
11936;BME280;6027;48.576;9.180;2023-07-20T01:25:31;96783.31;;;18.88;66.58
11936;BME280;6027;48.576;9.180;2023-07-20T01:31:20;96787.53;;;18.84;65.81
11936;BME280;6027;48.576;9.180;2023-07-20T01:33:47;96783.47;;;18.81;66.12
11936;BME280;6027;48.576;9.180;2023-07-20T01:36:14;96783.94;;;18.78;66.30
11936;BME280;6027;48.576;9.180;2023-07-20T01:38:42;96782.88;;;18.68;66.21
11936;BME280;6027;48.576;9.180;2023-07-20T01:41:08;96783.94;;;18.67;65.37
11936;BME280;6027;48.576;9.180;2023-07-20T01:43:34;96786.59;;;18.67;65.77
11936;BME280;6027;48.576;9.180;2023-07-20T01:45:59;96779.53;;;18.60;65.60
11936;BME280;6027;48.576;9.180;2023-07-20T01:48:24;96774.41;;;18.59;65.72
11936;BME280;6027;48.576;9.180;2023-07-20T01:50:50;96782.22;;;18.60;65.32
11936;BME280;6027;48.576;9.180;2023-07-20T01:53:15;96778.91;;;18.58;65.41
11936;BME280;6027;48.576;9.180;2023-07-20T01:55:40;96767.72;;;18.50;66.01
11936;BME280;6027;48.576;9.180;2023-07-20T01:58:06;96767.72;;;18.38;67.00
11936;BME280;6027;48.576;9.180;2023-07-20T02:00:32;96772.63;;;18.41;67.23
11936;BME280;6027;48.576;9.180;2023-07-20T02:02:57;96778.00;;;18.41;67.64
11936;BME280;6027;48.576;9.180;2023-07-20T02:05:22;96777.31;;;18.46;67.07
11936;BME280;6027;48.576;9.180;2023-07-20T02:07:48;96781.00;;;18.33;67.81
11936;BME280;6027;48.576;9.180;2023-07-20T02:10:13;96788.94;;;18.40;67.62
11936;BME280;6027;48.576;9.180;2023-07-20T02:12:39;96777.53;;;18.44;67.18
11936;BME280;6027;48.576;9.180;2023-07-20T02:15:05;96784.41;;;18.40;66.91
11936;BME280;6027;48.576;9.180;2023-07-20T02:17:30;96778.34;;;18.33;66.77
11936;BME280;6027;48.576;9.180;2023-07-20T02:19:56;96782.28;;;18.30;66.44
11936;BME280;6027;48.576;9.180;2023-07-20T02:22:24;96785.00;;;18.42;66.12
11936;BME280;6027;48.576;9.180;2023-07-20T02:24:50;96776.13;;;18.42;65.73
11936;BME280;6027;48.576;9.180;2023-07-20T02:27:16;96781.00;;;18.33;65.45
11936;BME280;6027;48.576;9.180;2023-07-20T02:29:42;96775.66;;;18.33;64.98
11936;BME280;6027;48.576;9.180;2023-07-20T02:32:08;96776.47;;;18.34;64.82
11936;BME280;6027;48.576;9.180;2023-07-20T02:34:35;96783.00;;;18.38;64.43
11936;BME280;6027;48.576;9.180;2023-07-20T02:37:00;96777.06;;;18.36;64.19
11936;BME280;6027;48.576;9.180;2023-07-20T02:39:29;96777.28;;;18.34;64.06
11936;BME280;6027;48.576;9.180;2023-07-20T02:41:54;96783.59;;;18.40;64.25
11936;BME280;6027;48.576;9.180;2023-07-20T02:44:20;96789.19;;;18.38;64.76
11936;BME280;6027;48.576;9.180;2023-07-20T02:46:46;96790.69;;;18.22;65.32
11936;BME280;6027;48.576;9.180;2023-07-20T02:49:11;96796.75;;;18.06;65.94
11936;BME280;6027;48.576;9.180;2023-07-20T02:51:37;96792.28;;;17.88;67.86
11936;BME280;6027;48.576;9.180;2023-07-20T02:54:03;96795.19;;;17.87;68.18
11936;BME280;6027;48.576;9.180;2023-07-20T02:56:29;96789.72;;;17.93;68.35
11936;BME280;6027;48.576;9.180;2023-07-20T02:58:54;96794.72;;;17.90;68.63
11936;BME280;6027;48.576;9.180;2023-07-20T03:01:20;96795.53;;;17.79;69.33
11936;BME280;6027;48.576;9.180;2023-07-20T03:03:45;96789.56;;;17.65;69.40
11936;BME280;6027;48.576;9.180;2023-07-20T03:06:15;96799.00;;;17.68;68.88
11936;BME280;6027;48.576;9.180;2023-07-20T03:08:42;96785.72;;;17.73;68.54
11936;BME280;6027;48.576;9.180;2023-07-20T03:11:16;96788.53;;;17.78;68.46
11936;BME280;6027;48.576;9.180;2023-07-20T03:13:42;96796.44;;;17.73;68.73
11936;BME280;6027;48.576;9.180;2023-07-20T03:16:08;96799.81;;;17.68;68.92
11936;BME280;6027;48.576;9.180;2023-07-20T03:18:39;96799.47;;;17.76;68.59
11936;BME280;6027;48.576;9.180;2023-07-20T03:21:06;96796.34;;;17.79;68.25
11936;BME280;6027;48.576;9.180;2023-07-20T03:23:32;96796.34;;;17.79;68.55
11936;BME280;6027;48.576;9.180;2023-07-20T03:25:58;96797.16;;;17.80;68.33
11936;BME280;6027;48.576;9.180;2023-07-20T03:28:23;96801.50;;;17.63;68.71
11936;BME280;6027;48.576;9.180;2023-07-20T03:30:58;96800.69;;;17.62;68.93
11936;BME280;6027;48.576;9.180;2023-07-20T03:33:28;96798.44;;;17.47;70.21
11936;BME280;6027;48.576;9.180;2023-07-20T03:35:54;96799.59;;;17.51;70.96
11936;BME280;6027;48.576;9.180;2023-07-20T03:38:24;96812.56;;;17.36;71.08
11936;BME280;6027;48.576;9.180;2023-07-20T03:40:56;96806.41;;;17.36;70.78
11936;BME280;6027;48.576;9.180;2023-07-20T03:43:23;96809.09;;;17.17;70.86
11936;BME280;6027;48.576;9.180;2023-07-20T03:45:49;96802.94;;;17.17;70.96
11936;BME280;6027;48.576;9.180;2023-07-20T03:48:20;96797.47;;;17.12;71.22
11936;BME280;6027;48.576;9.180;2023-07-20T03:50:47;96810.06;;;17.23;71.10
11936;BME280;6027;48.576;9.180;2023-07-20T03:53:13;96809.94;;;17.18;70.93
11936;BME280;6027;48.576;9.180;2023-07-20T03:55:38;96816.69;;;17.20;70.84
11936;BME280;6027;48.576;9.180;2023-07-20T03:58:06;96827.38;;;17.20;71.24
11936;BME280;6027;48.576;9.180;2023-07-20T04:00:31;96823.59;;;17.28;71.82
11936;BME280;6027;48.576;9.180;2023-07-20T04:02:57;96819.72;;;17.24;71.52
11936;BME280;6027;48.576;9.180;2023-07-20T04:05:22;96823.81;;;17.26;72.52
11936;BME280;6027;48.576;9.180;2023-07-20T04:07:47;96816.97;;;17.31;72.18
11936;BME280;6027;48.576;9.180;2023-07-20T04:10:13;96826.28;;;17.28;71.46
11936;BME280;6027;48.576;9.180;2023-07-20T04:12:38;96830.22;;;17.25;71.98
11936;BME280;6027;48.576;9.180;2023-07-20T04:15:04;96833.72;;;17.26;71.62
11936;BME280;6027;48.576;9.180;2023-07-20T04:17:30;96826.66;;;17.13;73.18
11936;BME280;6027;48.576;9.180;2023-07-20T04:19:55;96826.66;;;17.13;73.47
11936;BME280;6027;48.576;9.180;2023-07-20T04:22:21;96827.38;;;17.20;73.76
11936;BME280;6027;48.576;9.180;2023-07-20T04:24:46;96826.34;;;17.21;74.06
11936;BME280;6027;48.576;9.180;2023-07-20T04:27:12;96831.91;;;17.20;74.00
11936;BME280;6027;48.576;9.180;2023-07-20T04:29:37;96825.69;;;17.26;74.08
11936;BME280;6027;48.576;9.180;2023-07-20T04:32:03;96831.84;;;17.26;74.03
11936;BME280;6027;48.576;9.180;2023-07-20T04:34:28;96828.81;;;17.23;74.46
11936;BME280;6027;48.576;9.180;2023-07-20T04:36:54;96833.34;;;17.22;74.72
11936;BME280;6027;48.576;9.180;2023-07-20T04:39:19;96828.34;;;17.26;75.22
11936;BME280;6027;48.576;9.180;2023-07-20T04:41:45;96823.31;;;17.18;75.61
11936;BME280;6027;48.576;9.180;2023-07-20T04:44:10;96825.09;;;17.24;74.80
11936;BME280;6027;48.576;9.180;2023-07-20T04:46:36;96827.63;;;17.19;74.67
11936;BME280;6027;48.576;9.180;2023-07-20T04:49:01;96830.94;;;17.33;75.33
11936;BME280;6027;48.576;9.180;2023-07-20T04:51:27;96823.81;;;17.26;75.94
11936;BME280;6027;48.576;9.180;2023-07-20T04:53:55;96842.09;;;17.30;76.82
11936;BME280;6027;48.576;9.180;2023-07-20T04:56:21;96835.72;;;17.31;77.15
11936;BME280;6027;48.576;9.180;2023-07-20T04:58:48;96836.88;;;17.35;78.21
11936;BME280;6027;48.576;9.180;2023-07-20T05:01:14;96833.16;;;17.36;78.06
11936;BME280;6027;48.576;9.180;2023-07-20T05:03:39;96834.34;;;17.40;78.70
11936;BME280;6027;48.576;9.180;2023-07-20T05:06:04;96831.91;;;17.38;79.21
11936;BME280;6027;48.576;9.180;2023-07-20T05:08:30;96841.72;;;17.44;80.01
11936;BME280;6027;48.576;9.180;2023-07-20T05:10:55;96835.09;;;17.47;79.29
11936;BME280;6027;48.576;9.180;2023-07-20T05:13:21;96833.09;;;17.42;81.59
11936;BME280;6027;48.576;9.180;2023-07-20T05:15:46;96835.38;;;17.39;80.43
11936;BME280;6027;48.576;9.180;2023-07-20T05:18:12;96840.13;;;17.07;82.17
11936;BME280;6027;48.576;9.180;2023-07-20T05:20:37;96841.66;;;16.96;82.45
11936;BME280;6027;48.576;9.180;2023-07-20T05:23:03;96835.44;;;17.02;82.81
11936;BME280;6027;48.576;9.180;2023-07-20T05:25:28;96838.78;;;16.98;82.77
11936;BME280;6027;48.576;9.180;2023-07-20T05:27:54;96835.59;;;17.07;83.29
11936;BME280;6027;48.576;9.180;2023-07-20T05:30:20;96842.94;;;17.12;83.08
11936;BME280;6027;48.576;9.180;2023-07-20T05:32:46;96835.75;;;17.12;81.95
11936;BME280;6027;48.576;9.180;2023-07-20T05:35:17;96826.41;;;17.15;82.10
11936;BME280;6027;48.576;9.180;2023-07-20T05:37:44;96830.88;;;17.21;82.99
11936;BME280;6027;48.576;9.180;2023-07-20T05:40:10;96830.88;;;17.21;83.19
11936;BME280;6027;48.576;9.180;2023-07-20T05:42:38;96835.78;;;17.24;82.03
11936;BME280;6027;48.576;9.180;2023-07-20T05:45:03;96840.63;;;17.15;82.16
11936;BME280;6027;48.576;9.180;2023-07-20T05:47:29;96831.09;;;17.19;79.77
11936;BME280;6027;48.576;9.180;2023-07-20T05:49:54;96828.59;;;17.24;79.24
11936;BME280;6027;48.576;9.180;2023-07-20T05:52:20;96831.84;;;17.26;80.65
11936;BME280;6027;48.576;9.180;2023-07-20T05:54:45;96836.88;;;17.35;81.32
11936;BME280;6027;48.576;9.180;2023-07-20T05:57:10;96845.25;;;17.56;82.90
11936;BME280;6027;48.576;9.180;2023-07-20T05:59:36;96840.94;;;17.55;82.99
11936;BME280;6027;48.576;9.180;2023-07-20T06:02:03;96832.44;;;17.58;82.55
11936;BME280;6027;48.576;9.180;2023-07-20T06:04:29;96841.47;;;17.64;83.51
11936;BME280;6027;48.576;9.180;2023-07-20T06:06:54;96845.81;;;17.77;84.35
11936;BME280;6027;48.576;9.180;2023-07-20T06:09:20;96843.50;;;17.80;83.92
11936;BME280;6027;48.576;9.180;2023-07-20T06:11:45;96843.03;;;17.83;83.85
11936;BME280;6027;48.576;9.180;2023-07-20T06:14:11;96845.00;;;17.76;84.17
11936;BME280;6027;48.576;9.180;2023-07-20T06:16:36;96853.91;;;17.88;83.79
11936;BME280;6027;48.576;9.180;2023-07-20T06:19:02;96840.97;;;17.85;83.17
11936;BME280;6027;48.576;9.180;2023-07-20T06:21:27;96849.59;;;17.99;82.67
11936;BME280;6027;48.576;9.180;2023-07-20T06:23:53;96851.16;;;18.07;82.99
11936;BME280;6027;48.576;9.180;2023-07-20T06:26:18;96847.28;;;18.14;82.94
11936;BME280;6027;48.576;9.180;2023-07-20T06:28:45;96847.66;;;18.18;81.61
11936;BME280;6027;48.576;9.180;2023-07-20T06:31:10;96843.72;;;18.32;82.81
11936;BME280;6027;48.576;9.180;2023-07-20T06:33:36;96840.66;;;18.28;82.98
11936;BME280;6027;48.576;9.180;2023-07-20T06:36:02;96831.47;;;18.36;83.72
11936;BME280;6027;48.576;9.180;2023-07-20T06:38:28;96837.53;;;18.32;84.31
11936;BME280;6027;48.576;9.180;2023-07-20T06:40:53;96833.47;;;18.41;82.34
11936;BME280;6027;48.576;9.180;2023-07-20T06:43:18;96831.59;;;18.41;82.53
11936;BME280;6027;48.576;9.180;2023-07-20T06:45:44;96841.50;;;18.41;83.77
11936;BME280;6027;48.576;9.180;2023-07-20T06:48:09;96841.50;;;18.41;84.34
11936;BME280;6027;48.576;9.180;2023-07-20T06:50:35;96830.78;;;18.41;84.22
11936;BME280;6027;48.576;9.180;2023-07-20T06:53:00;96843.28;;;18.47;82.70
11936;BME280;6027;48.576;9.180;2023-07-20T06:55:29;96839.78;;;18.46;82.90
11936;BME280;6027;48.576;9.180;2023-07-20T06:57:54;96832.53;;;18.58;80.00
11936;BME280;6027;48.576;9.180;2023-07-20T07:00:20;96837.56;;;18.67;77.91
11936;BME280;6027;48.576;9.180;2023-07-20T07:02:45;96835.38;;;18.63;78.18
11936;BME280;6027;48.576;9.180;2023-07-20T07:05:11;96837.47;;;18.61;75.64
11936;BME280;6027;48.576;9.180;2023-07-20T07:07:38;96831.66;;;18.65;77.57
11936;BME280;6027;48.576;9.180;2023-07-20T07:10:04;96835.72;;;18.79;77.81
11936;BME280;6027;48.576;9.180;2023-07-20T07:12:30;96832.22;;;18.78;77.17
11936;BME280;6027;48.576;9.180;2023-07-20T07:14:56;96834.66;;;18.80;78.85
11936;BME280;6027;48.576;9.180;2023-07-20T07:17:22;96841.50;;;18.99;74.88
11936;BME280;6027;48.576;9.180;2023-07-20T07:19:47;96832.75;;;19.04;74.05
11936;BME280;6027;48.576;9.180;2023-07-20T07:22:13;96824.78;;;19.09;72.50
11936;BME280;6027;48.576;9.180;2023-07-20T07:24:39;96827.81;;;19.12;75.25
11936;BME280;6027;48.576;9.180;2023-07-20T07:27:08;96835.53;;;19.20;73.68
11936;BME280;6027;48.576;9.180;2023-07-20T07:29:34;96825.25;;;19.17;72.52
11936;BME280;6027;48.576;9.180;2023-07-20T07:31:59;96826.88;;;19.18;72.31
11936;BME280;6027;48.576;9.180;2023-07-20T07:34:25;96832.59;;;19.22;73.90
11936;BME280;6027;48.576;9.180;2023-07-20T07:36:50;96829.34;;;19.20;72.95
11936;BME280;6027;48.576;9.180;2023-07-20T07:39:16;96827.00;;;19.23;71.74
11936;BME280;6027;48.576;9.180;2023-07-20T07:41:41;96830.72;;;19.22;69.78
11936;BME280;6027;48.576;9.180;2023-07-20T07:44:07;96808.84;;;19.02;70.59
11936;BME280;6027;48.576;9.180;2023-07-20T07:46:32;96822.84;;;19.04;72.27
11936;BME280;6027;48.576;9.180;2023-07-20T07:48:57;96825.38;;;19.11;72.49
11936;BME280;6027;48.576;9.180;2023-07-20T07:51:23;96823.63;;;19.16;72.70
11936;BME280;6027;48.576;9.180;2023-07-20T07:53:48;96823.72;;;19.21;72.09
11936;BME280;6027;48.576;9.180;2023-07-20T07:56:14;96797.13;;;19.20;72.87
11936;BME280;6027;48.576;9.180;2023-07-20T07:58:40;96818.19;;;19.40;72.94
11936;BME280;6027;48.576;9.180;2023-07-20T08:01:05;96822.97;;;19.38;72.67
11936;BME280;6027;48.576;9.180;2023-07-20T08:03:31;96823.91;;;19.43;72.18
11936;BME280;6027;48.576;9.180;2023-07-20T08:05:56;96822.56;;;19.46;70.08
11936;BME280;6027;48.576;9.180;2023-07-20T08:08:22;96827.03;;;19.52;68.61
11936;BME280;6027;48.576;9.180;2023-07-20T08:10:48;96833.44;;;19.51;70.88
11936;BME280;6027;48.576;9.180;2023-07-20T08:13:13;96830.06;;;19.55;69.09
11936;BME280;6027;48.576;9.180;2023-07-20T08:15:39;96827.84;;;19.52;70.26
11936;BME280;6027;48.576;9.180;2023-07-20T08:18:06;96830.88;;;19.44;69.83
11936;BME280;6027;48.576;9.180;2023-07-20T08:20:32;96827.13;;;19.45;69.98
11936;BME280;6027;48.576;9.180;2023-07-20T08:23:01;96826.22;;;19.51;71.65
11936;BME280;6027;48.576;9.180;2023-07-20T08:25:26;96827.22;;;19.62;70.16
11936;BME280;6027;48.576;9.180;2023-07-20T08:27:51;96829.66;;;19.63;67.65
11936;BME280;6027;48.576;9.180;2023-07-20T08:30:17;96819.56;;;19.54;67.53
11936;BME280;6027;48.576;9.180;2023-07-20T08:32:43;96814.19;;;19.54;69.88
11936;BME280;6027;48.576;9.180;2023-07-20T08:35:08;96816.00;;;19.65;68.95
11936;BME280;6027;48.576;9.180;2023-07-20T08:37:34;96813.28;;;19.65;69.23
11936;BME280;6027;48.576;9.180;2023-07-20T08:39:59;96819.09;;;19.74;66.63
11936;BME280;6027;48.576;9.180;2023-07-20T08:42:25;96815.06;;;19.88;65.21
11936;BME280;6027;48.576;9.180;2023-07-20T08:44:52;96807.47;;;20.01;67.02
11936;BME280;6027;48.576;9.180;2023-07-20T08:47:18;96816.16;;;20.20;64.70
11936;BME280;6027;48.576;9.180;2023-07-20T08:49:48;96812.56;;;20.31;61.91
11936;BME280;6027;48.576;9.180;2023-07-20T08:52:13;96810.69;;;20.32;63.53
11936;BME280;6027;48.576;9.180;2023-07-20T08:54:39;96813.84;;;20.29;63.99
11936;BME280;6027;48.576;9.180;2023-07-20T08:57:06;96808.72;;;20.27;62.86
11936;BME280;6027;48.576;9.180;2023-07-20T08:59:32;96805.63;;;20.35;63.46
11936;BME280;6027;48.576;9.180;2023-07-20T09:02:01;96807.59;;;20.40;60.79
11936;BME280;6027;48.576;9.180;2023-07-20T09:04:27;96807.28;;;20.37;60.51
11936;BME280;6027;48.576;9.180;2023-07-20T09:06:52;96803.84;;;20.41;62.50
11936;BME280;6027;48.576;9.180;2023-07-20T09:09:18;96794.72;;;20.59;58.86
11936;BME280;6027;48.576;9.180;2023-07-20T09:11:47;96798.69;;;20.73;58.05
11936;BME280;6027;48.576;9.180;2023-07-20T09:14:12;96799.81;;;20.77;58.61
11936;BME280;6027;48.576;9.180;2023-07-20T09:16:54;96802.75;;;20.76;59.39
11936;BME280;6027;48.576;9.180;2023-07-20T09:19:20;96800.44;;;20.84;58.89
11936;BME280;6027;48.576;9.180;2023-07-20T09:21:51;96799.38;;;20.85;59.67
11936;BME280;6027;48.576;9.180;2023-07-20T09:24:18;96793.66;;;20.82;55.24
11936;BME280;6027;48.576;9.180;2023-07-20T09:26:45;96798.44;;;20.75;57.38
11936;BME280;6027;48.576;9.180;2023-07-20T09:29:13;96800.19;;;20.86;58.21
11936;BME280;6027;48.576;9.180;2023-07-20T09:31:38;96801.16;;;20.96;59.80
11936;BME280;6027;48.576;9.180;2023-07-20T09:34:07;96800.69;;;21.04;58.43
11936;BME280;6027;48.576;9.180;2023-07-20T09:36:36;96794.00;;;21.07;57.80
11936;BME280;6027;48.576;9.180;2023-07-20T09:39:03;96793.84;;;21.19;58.33
11936;BME280;6027;48.576;9.180;2023-07-20T09:41:30;96792.81;;;21.20;55.47
11936;BME280;6027;48.576;9.180;2023-07-20T09:44:04;96781.75;;;21.16;57.13
11936;BME280;6027;48.576;9.180;2023-07-20T09:46:41;96782.69;;;21.27;55.07
11936;BME280;6027;48.576;9.180;2023-07-20T09:49:08;96781.69;;;21.33;53.29
11936;BME280;6027;48.576;9.180;2023-07-20T09:51:34;96780.53;;;21.51;51.67
11936;BME280;6027;48.576;9.180;2023-07-20T09:54:00;96785.59;;;21.47;49.25
11936;BME280;6027;48.576;9.180;2023-07-20T09:56:27;96779.50;;;21.30;51.60
11936;BME280;6027;48.576;9.180;2023-07-20T09:58:53;96784.56;;;21.26;52.37
11936;BME280;6027;48.576;9.180;2023-07-20T10:01:20;96778.13;;;21.27;53.10
11936;BME280;6027;48.576;9.180;2023-07-20T10:03:51;96776.66;;;21.42;51.07
11936;BME280;6027;48.576;9.180;2023-07-20T10:06:22;96776.41;;;21.43;50.82
11936;BME280;6027;48.576;9.180;2023-07-20T10:08:55;96770.88;;;21.55;49.12
11936;BME280;6027;48.576;9.180;2023-07-20T10:11:27;96767.63;;;21.53;49.13
11936;BME280;6027;48.576;9.180;2023-07-20T10:13:55;96771.63;;;21.50;48.86
11936;BME280;6027;48.576;9.180;2023-07-20T10:16:34;96765.53;;;21.60;46.97
11936;BME280;6027;48.576;9.180;2023-07-20T10:19:17;96761.38;;;21.79;47.42
11936;BME280;6027;48.576;9.180;2023-07-20T10:21:56;96745.31;;;21.89;44.89
11936;BME280;6027;48.576;9.180;2023-07-20T10:24:24;96750.31;;;22.02;45.42
11936;BME280;6027;48.576;9.180;2023-07-20T10:26:50;96741.00;;;22.20;44.08
11936;BME280;6027;48.576;9.180;2023-07-20T10:29:17;96744.56;;;22.26;43.73
11936;BME280;6027;48.576;9.180;2023-07-20T10:31:42;96735.38;;;22.27;44.32
11936;BME280;6027;48.576;9.180;2023-07-20T10:34:09;96733.25;;;22.34;44.72
11936;BME280;6027;48.576;9.180;2023-07-20T10:36:46;96736.81;;;22.39;44.67
11936;BME280;6027;48.576;9.180;2023-07-20T10:39:30;96736.16;;;22.64;41.60
11936;BME280;6027;48.576;9.180;2023-07-20T10:42:05;96733.72;;;22.63;40.56
11936;BME280;6027;48.576;9.180;2023-07-20T10:44:31;96727.38;;;22.42;40.07
11936;BME280;6027;48.576;9.180;2023-07-20T10:47:02;96728.94;;;22.28;40.96
11936;BME280;6027;48.576;9.180;2023-07-20T10:49:33;96725.13;;;22.24;41.15
11936;BME280;6027;48.576;9.180;2023-07-20T10:52:00;96721.66;;;22.33;40.08
11936;BME280;6027;48.576;9.180;2023-07-20T10:56:56;96722.41;;;22.66;39.81
11936;BME280;6027;48.576;9.180;2023-07-20T11:01:57;96712.00;;;22.90;40.00
11936;BME280;6027;48.576;9.180;2023-07-20T11:04:42;96713.09;;;22.89;40.82
11936;BME280;6027;48.576;9.180;2023-07-20T11:07:07;96706.91;;;23.03;40.10
11936;BME280;6027;48.576;9.180;2023-07-20T11:09:38;96713.75;;;23.26;40.85
11936;BME280;6027;48.576;9.180;2023-07-20T11:12:21;96712.09;;;23.30;38.71
11936;BME280;6027;48.576;9.180;2023-07-20T11:14:57;96715.84;;;23.14;37.57
11936;BME280;6027;48.576;9.180;2023-07-20T11:17:31;96718.56;;;23.19;38.17
11936;BME280;6027;48.576;9.180;2023-07-20T11:19:59;96708.06;;;23.23;38.80
11936;BME280;6027;48.576;9.180;2023-07-20T11:22:26;96703.97;;;23.15;37.84
11936;BME280;6027;48.576;9.180;2023-07-20T11:24:55;96714.00;;;23.25;37.50
11936;BME280;6027;48.576;9.180;2023-07-20T11:27:21;96713.19;;;23.29;38.99
11936;BME280;6027;48.576;9.180;2023-07-20T11:29:48;96710.78;;;23.43;36.92
11936;BME280;6027;48.576;9.180;2023-07-20T11:32:20;96709.69;;;23.49;35.34
11936;BME280;6027;48.576;9.180;2023-07-20T11:34:47;96704.63;;;23.63;36.46
11936;BME280;6027;48.576;9.180;2023-07-20T11:37:13;96701.94;;;23.63;35.77
11936;BME280;6027;48.576;9.180;2023-07-20T11:39:38;96700.03;;;23.79;36.62
11936;BME280;6027;48.576;9.180;2023-07-20T11:42:05;96698.16;;;23.79;36.55
11936;BME280;6027;48.576;9.180;2023-07-20T11:44:30;96696.00;;;23.81;37.72
11936;BME280;6027;48.576;9.180;2023-07-20T11:47:01;96697.31;;;23.89;37.40
11936;BME280;6027;48.576;9.180;2023-07-20T11:49:40;96685.69;;;23.98;37.48
11936;BME280;6027;48.576;9.180;2023-07-20T11:52:07;96697.03;;;24.10;37.33
11936;BME280;6027;48.576;9.180;2023-07-20T11:54:35;96687.84;;;24.11;36.98
11936;BME280;6027;48.576;9.180;2023-07-20T11:57:04;96677.03;;;24.17;36.09
11936;BME280;6027;48.576;9.180;2023-07-20T11:59:33;96692.16;;;24.18;37.22
11936;BME280;6027;48.576;9.180;2023-07-20T12:02:02;96678.09;;;24.26;38.10
11936;BME280;6027;48.576;9.180;2023-07-20T12:04:28;96674.84;;;24.19;36.29
11936;BME280;6027;48.576;9.180;2023-07-20T12:06:54;96673.78;;;24.15;37.98
11936;BME280;6027;48.576;9.180;2023-07-20T12:09:20;96670.00;;;24.21;36.41
11936;BME280;6027;48.576;9.180;2023-07-20T12:11:49;96670.00;;;24.21;36.28
11936;BME280;6027;48.576;9.180;2023-07-20T12:14:14;96668.63;;;24.23;36.49
11936;BME280;6027;48.576;9.180;2023-07-20T12:16:40;96672.41;;;24.32;34.91
11936;BME280;6027;48.576;9.180;2023-07-20T12:19:07;96671.00;;;24.50;36.22
11936;BME280;6027;48.576;9.180;2023-07-20T12:21:37;96665.84;;;24.54;35.71
11936;BME280;6027;48.576;9.180;2023-07-20T12:24:04;96661.53;;;24.58;36.51
11936;BME280;6027;48.576;9.180;2023-07-20T12:26:31;96659.63;;;24.58;36.33
11936;BME280;6027;48.576;9.180;2023-07-20T12:28:57;96656.59;;;24.65;35.46
11936;BME280;6027;48.576;9.180;2023-07-20T12:31:23;96645.47;;;24.71;35.93
11936;BME280;6027;48.576;9.180;2023-07-20T12:33:50;96630.06;;;24.67;36.63
11936;BME280;6027;48.576;9.180;2023-07-20T12:36:17;96646.28;;;24.72;37.16
11936;BME280;6027;48.576;9.180;2023-07-20T12:38:42;96651.16;;;24.70;35.72
11936;BME280;6027;48.576;9.180;2023-07-20T12:41:10;96653.06;;;24.74;34.31
11936;BME280;6027;48.576;9.180;2023-07-20T12:43:37;96650.38;;;24.64;35.20
11936;BME280;6027;48.576;9.180;2023-07-20T12:46:03;96645.50;;;24.66;36.23
11936;BME280;6027;48.576;9.180;2023-07-20T12:48:29;96638.44;;;24.75;38.05
11936;BME280;6027;48.576;9.180;2023-07-20T12:50:54;96644.09;;;24.79;34.77
11936;BME280;6027;48.576;9.180;2023-07-20T12:53:20;96641.16;;;24.65;34.05
11936;BME280;6027;48.576;9.180;2023-07-20T12:55:45;96634.13;;;24.69;35.40
11936;BME280;6027;48.576;9.180;2023-07-20T12:58:11;96631.66;;;24.78;34.59
11936;BME280;6027;48.576;9.180;2023-07-20T13:00:37;96624.97;;;24.55;34.32
11936;BME280;6027;48.576;9.180;2023-07-20T13:03:02;96627.94;;;24.59;35.90
11936;BME280;6027;48.576;9.180;2023-07-20T13:05:32;96626.53;;;24.71;34.65
11936;BME280;6027;48.576;9.180;2023-07-20T13:07:58;96617.88;;;24.64;33.51
11936;BME280;6027;48.576;9.180;2023-07-20T13:10:24;96609.53;;;24.61;35.45
11936;BME280;6027;48.576;9.180;2023-07-20T13:12:50;96613.81;;;24.72;36.20
11936;BME280;6027;48.576;9.180;2023-07-20T13:15:16;96615.59;;;24.97;37.05
11936;BME280;6027;48.576;9.180;2023-07-20T13:17:41;96607.41;;;25.02;35.39
11936;BME280;6027;48.576;9.180;2023-07-20T13:20:08;96611.75;;;25.03;35.27